createdAt,value
2023-03-17T00:00:02.078Z,4.26
2023-03-17T00:03:25.015Z,4.27
2023-03-17T00:06:29.764Z,4.25
2023-03-17T00:09:31.192Z,4.28
2023-03-17T00:12:32.641Z,4.31
2023-03-17T00:15:34.444Z,4.32
2023-03-17T00:18:37.052Z,4.32
2023-03-17T00:21:38.582Z,4.29
2023-03-17T00:24:40.041Z,4.28
2023-03-17T00:27:41.432Z,4.25
2023-03-17T00:30:43.302Z,4.22
2023-03-17T00:33:45.676Z,4.14
2023-03-17T00:36:49.430Z,4.09
2023-03-17T00:39:50.760Z,3.87
2023-03-17T00:42:53.200Z,3.91
2023-03-17T00:45:54.708Z,3.88
2023-03-17T00:48:56.254Z,3.86
2023-03-17T00:51:57.719Z,3.79
2023-03-17T00:54:59.162Z,3.79
2023-03-17T00:58:00.610Z,3.73
2023-03-17T01:01:02.161Z,3.69
2023-03-17T01:04:03.697Z,3.65
2023-03-17T01:07:05.624Z,3.62
2023-03-17T01:10:15.993Z,3.57
2023-03-17T01:13:17.460Z,3.51
2023-03-17T01:16:18.880Z,3.51
2023-03-17T01:19:21.067Z,3.47
2023-03-17T01:22:22.647Z,3.45
2023-03-17T01:25:24.353Z,3.43
2023-03-17T01:28:25.810Z,3.39
2023-03-17T01:31:27.335Z,3.36
2023-03-17T01:34:29.139Z,3.33
2023-03-17T01:37:30.724Z,3.33
2023-03-17T01:40:35.001Z,3.34
2023-03-17T01:43:36.415Z,3.33
2023-03-17T01:46:37.885Z,3.34
2023-03-17T01:49:39.452Z,3.35
2023-03-17T01:52:41.001Z,3.32
2023-03-17T01:55:44.527Z,3.31
2023-03-17T01:58:48.670Z,3.29
2023-03-17T02:01:54.568Z,3.30
2023-03-17T02:04:57.039Z,3.30
2023-03-17T02:07:58.979Z,3.32
2023-03-17T02:11:04.116Z,3.33
2023-03-17T02:14:05.595Z,3.33
2023-03-17T02:17:07.337Z,3.36
2023-03-17T02:20:32.656Z,3.34
2023-03-17T02:23:34.179Z,3.32
2023-03-17T02:26:36.817Z,3.32
2023-03-17T02:29:38.337Z,3.27
2023-03-17T02:32:39.921Z,3.26
2023-03-17T02:35:41.585Z,3.23
2023-03-17T02:38:43.203Z,3.20
2023-03-17T02:41:44.650Z,3.19
2023-03-17T02:44:46.132Z,3.18
2023-03-17T02:47:49.369Z,3.15
2023-03-17T02:50:50.788Z,3.12
2023-03-17T02:53:52.230Z,3.14
2023-03-17T02:56:53.668Z,3.13
2023-03-17T02:59:55.070Z,3.14
2023-03-17T03:02:56.703Z,3.14
2023-03-17T03:05:58.249Z,3.17
2023-03-17T03:08:59.719Z,3.17
2023-03-17T03:12:01.209Z,3.13
2023-03-17T03:15:02.705Z,3.10
2023-03-17T03:18:04.159Z,3.10
2023-03-17T03:21:06.190Z,3.08
2023-03-17T03:24:08.465Z,3.08
2023-03-17T03:27:10.006Z,3.05
2023-03-17T03:30:11.820Z,3.03
2023-03-17T03:33:14.691Z,3.03
2023-03-17T03:36:16.192Z,2.99
2023-03-17T03:39:17.671Z,2.99
2023-03-17T03:42:19.100Z,3.02
2023-03-17T03:45:20.588Z,3.03
2023-03-17T03:48:22.555Z,3.06
2023-03-17T03:51:24.154Z,3.04
2023-03-17T03:54:25.643Z,2.99
2023-03-17T03:57:27.234Z,2.93
2023-03-17T04:00:29.235Z,2.85
2023-03-17T04:03:30.751Z,2.80
2023-03-17T04:06:32.280Z,2.78
2023-03-17T04:09:33.731Z,2.78
2023-03-17T04:12:35.294Z,2.82
2023-03-17T04:15:36.920Z,2.81
2023-03-17T04:18:38.392Z,2.84
2023-03-17T04:21:39.856Z,2.82
2023-03-17T04:24:41.280Z,2.79
2023-03-17T04:27:42.871Z,2.75
2023-03-17T04:30:44.272Z,2.70
2023-03-17T04:33:45.702Z,2.64
2023-03-17T04:36:47.883Z,2.64
2023-03-17T04:39:49.329Z,2.61
2023-03-17T04:42:50.733Z,2.62
2023-03-17T04:45:52.188Z,2.62
2023-03-17T04:48:53.897Z,2.62
2023-03-17T04:51:55.391Z,2.62
2023-03-17T04:54:57.029Z,2.60
2023-03-17T04:57:58.450Z,2.55
2023-03-17T05:01:00.037Z,2.56
2023-03-17T05:04:01.513Z,2.48
2023-03-17T05:07:03.084Z,2.42
2023-03-17T05:10:05.212Z,2.38
2023-03-17T05:13:06.708Z,2.32
2023-03-17T05:16:09.061Z,2.27
2023-03-17T05:19:10.575Z,2.22
2023-03-17T05:22:12.022Z,2.20
2023-03-17T05:25:13.470Z,2.19
2023-03-17T05:28:15.171Z,2.18
2023-03-17T05:31:16.726Z,2.18
2023-03-17T05:34:18.231Z,2.22
2023-03-17T05:37:19.683Z,2.22
2023-03-17T05:40:22.596Z,2.28
2023-03-17T05:43:25.407Z,2.29
2023-03-17T05:46:26.956Z,2.34
2023-03-17T05:49:28.583Z,2.38
2023-03-17T05:52:30.872Z,2.44
2023-03-17T05:55:32.349Z,2.49
2023-03-17T05:58:33.838Z,2.56
2023-03-17T06:01:35.292Z,2.62
2023-03-17T06:04:37.654Z,2.68
2023-03-17T06:07:51.598Z,2.74
2023-03-17T06:10:56.159Z,2.79
2023-03-17T06:13:57.641Z,2.84
2023-03-17T06:16:59.045Z,2.90
2023-03-17T06:20:00.453Z,2.97
2023-03-17T06:23:05.334Z,3.02
2023-03-17T06:26:08.460Z,3.15
2023-03-17T06:29:10.018Z,3.34
2023-03-17T06:32:20.276Z,3.53
2023-03-17T06:35:22.321Z,4.39
2023-03-17T06:38:23.728Z,5.78
2023-03-17T06:41:25.180Z,6.48
2023-03-17T06:44:26.599Z,7.22
2023-03-17T06:47:27.995Z,7.31
2023-03-17T06:50:29.950Z,6.00
2023-03-17T06:53:31.606Z,5.23
2023-03-17T06:56:33.041Z,4.98
2023-03-17T06:59:34.458Z,4.94
2023-03-17T07:02:35.859Z,5.08
2023-03-17T07:05:37.318Z,5.32
2023-03-17T07:08:38.691Z,5.32
2023-03-17T07:11:40.103Z,5.55
2023-03-17T07:14:41.631Z,6.71
2023-03-17T07:17:43.208Z,7.04
2023-03-17T07:20:44.708Z,6.38
2023-03-17T07:23:46.090Z,8.47
2023-03-17T07:26:47.449Z,9.79
2023-03-17T07:29:48.882Z,10.16
2023-03-17T07:32:50.284Z,9.09
2023-03-17T07:35:51.932Z,7.90
2023-03-17T07:38:53.381Z,7.82
2023-03-17T07:41:54.983Z,8.00
2023-03-17T07:44:56.478Z,7.53
2023-03-17T07:47:57.876Z,7.35
2023-03-17T07:50:59.441Z,7.39
2023-03-17T07:54:01.243Z,7.58
2023-03-17T07:57:03.301Z,9.59
2023-03-17T08:00:06.569Z,11.30
2023-03-17T08:03:12.791Z,10.62
2023-03-17T08:06:14.224Z,8.89
2023-03-17T08:09:15.650Z,8.51
2023-03-17T08:12:17.069Z,8.17
2023-03-17T08:15:18.701Z,8.28
2023-03-17T08:18:20.074Z,8.89
2023-03-17T08:21:21.499Z,9.10
2023-03-17T08:24:22.878Z,9.12
2023-03-17T08:27:24.712Z,9.43
2023-03-17T08:30:26.161Z,9.55
2023-03-17T08:33:27.577Z,9.67
2023-03-17T08:36:29.327Z,9.46
2023-03-17T08:39:30.928Z,9.60
2023-03-17T08:42:32.329Z,9.97
2023-03-17T08:45:33.759Z,9.78
2023-03-17T08:48:36.484Z,9.59
2023-03-17T08:51:38.792Z,9.65
2023-03-17T08:54:40.173Z,9.58
2023-03-17T08:57:42.777Z,9.69
2023-03-17T09:00:44.159Z,10.28
2023-03-17T09:03:45.559Z,10.29
2023-03-17T09:07:02.272Z,10.62
2023-03-17T09:10:06.080Z,10.64
2023-03-17T09:13:07.464Z,10.90
2023-03-17T09:16:09.022Z,11.00
2023-03-17T09:19:10.470Z,11.31
2023-03-17T09:22:13.919Z,11.39
2023-03-17T09:25:16.456Z,11.40
2023-03-17T09:28:18.098Z,11.32
2023-03-17T09:31:19.564Z,11.65
2023-03-17T09:34:20.973Z,11.54
2023-03-17T09:37:22.385Z,11.87
2023-03-17T09:40:31.209Z,12.05
2023-03-17T09:43:47.947Z,11.99
2023-03-17T09:47:20.841Z,12.03
2023-03-17T09:50:27.070Z,12.22
2023-03-17T09:53:40.599Z,12.21
2023-03-17T09:56:43.137Z,11.68
2023-03-17T09:59:47.787Z,11.70
2023-03-17T10:02:49.229Z,11.50
2023-03-17T10:05:50.994Z,11.56
2023-03-17T10:09:02.218Z,11.56
2023-03-17T10:12:08.320Z,11.44
2023-03-17T10:15:54.975Z,11.54
2023-03-17T10:19:09.758Z,11.63
2023-03-17T10:22:21.038Z,11.79
2023-03-17T10:25:34.797Z,11.96
2023-03-17T10:28:36.596Z,12.03
2023-03-17T10:31:38.266Z,12.14
2023-03-17T10:34:42.023Z,12.21
2023-03-17T10:37:46.445Z,12.11
2023-03-17T10:40:58.826Z,12.35
2023-03-17T10:44:00.377Z,12.60
2023-03-17T10:47:01.892Z,12.77
2023-03-17T10:50:20.406Z,12.96
2023-03-17T10:53:23.972Z,13.09
2023-03-17T10:56:28.223Z,12.93
2023-03-17T10:59:32.130Z,12.87
2023-03-17T11:02:44.289Z,12.87
2023-03-17T11:06:03.346Z,12.86
2023-03-17T11:09:09.182Z,12.98
2023-03-17T11:12:28.546Z,12.92
2023-03-17T11:15:35.553Z,12.89
2023-03-17T11:18:39.286Z,13.18
2023-03-17T11:21:57.348Z,13.15
2023-03-17T11:25:19.752Z,13.01
2023-03-17T11:28:22.541Z,13.03
2023-03-17T11:31:32.724Z,13.00
2023-03-17T11:35:03.528Z,13.23
2023-03-17T11:38:21.819Z,13.59
2023-03-17T11:41:58.560Z,13.92
2023-03-17T11:44:59.977Z,14.04
2023-03-17T11:48:13.220Z,13.92
2023-03-17T11:51:36.495Z,14.01
2023-03-17T11:55:05.064Z,14.22
2023-03-17T11:58:12.160Z,14.23
2023-03-17T12:01:19.340Z,14.23
2023-03-17T12:04:27.300Z,14.29
2023-03-17T12:07:43.647Z,14.28
2023-03-17T12:10:52.821Z,14.48
2023-03-17T12:14:15.189Z,14.70
2023-03-17T12:17:21.015Z,14.66
2023-03-17T12:20:34.950Z,14.53
2023-03-17T12:23:45.817Z,14.60
2023-03-17T12:27:13.202Z,14.78
2023-03-17T12:30:22.256Z,14.53
2023-03-17T12:33:49.802Z,14.59
2023-03-17T12:36:52.351Z,14.73
2023-03-17T12:40:01.415Z,14.54
2023-03-17T12:43:24.015Z,14.65
2023-03-17T12:46:47.395Z,14.76
2023-03-17T12:50:27.255Z,14.75
2023-03-17T12:53:32.139Z,15.10
2023-03-17T12:56:36.079Z,15.06
2023-03-17T12:59:42.942Z,15.19
2023-03-17T13:02:49.098Z,14.92
2023-03-17T13:05:54.400Z,14.90
2023-03-17T13:08:55.943Z,15.10
2023-03-17T13:11:58.538Z,15.05
2023-03-17T13:14:59.986Z,14.80
2023-03-17T13:18:27.204Z,15.04
2023-03-17T13:21:31.034Z,15.23
2023-03-17T13:24:42.209Z,15.21
2023-03-17T13:27:45.194Z,15.19
2023-03-17T13:31:24.342Z,15.18
2023-03-17T13:34:28.165Z,15.14
2023-03-17T13:37:35.525Z,15.13
2023-03-17T13:41:00.107Z,15.00
2023-03-17T13:44:29.110Z,15.04
2023-03-17T13:47:39.640Z,15.06
2023-03-17T13:50:42.222Z,15.03
2023-03-17T13:54:06.172Z,15.00
2023-03-17T13:57:23.033Z,14.99
2023-03-17T14:00:28.890Z,15.06
2023-03-17T14:03:37.665Z,15.13
2023-03-17T14:06:39.616Z,15.10
2023-03-17T14:09:41.553Z,14.86
2023-03-17T14:13:04.789Z,14.73
2023-03-17T14:16:27.687Z,14.63
2023-03-17T14:19:29.870Z,14.57
2023-03-17T14:22:31.253Z,14.50
2023-03-17T14:25:35.922Z,14.44
2023-03-17T14:28:37.663Z,14.42
2023-03-17T14:31:39.121Z,14.46
2023-03-17T14:34:48.528Z,14.55
2023-03-17T14:37:50.027Z,14.57
2023-03-17T14:41:03.473Z,14.59
2023-03-17T14:44:08.991Z,14.60
2023-03-17T14:47:22.826Z,14.62
2023-03-17T14:50:31.996Z,14.65
2023-03-17T14:53:35.528Z,14.66
2023-03-17T14:56:40.736Z,14.71
2023-03-17T14:59:54.544Z,14.72
2023-03-17T15:02:58.392Z,14.75
2023-03-17T15:06:26.052Z,14.71
2023-03-17T15:09:29.748Z,14.72
2023-03-17T15:12:31.574Z,14.64
2023-03-17T15:15:36.979Z,14.59
2023-03-17T15:18:38.381Z,14.52
2023-03-17T15:21:41.955Z,14.46
2023-03-17T15:24:43.375Z,14.45
2023-03-17T15:27:45.763Z,14.40
2023-03-17T15:30:50.270Z,14.28
2023-03-17T15:33:52.346Z,14.22
2023-03-17T15:36:53.751Z,14.18
2023-03-17T15:39:56.384Z,14.12
2023-03-17T15:42:57.772Z,14.07
2023-03-17T15:46:06.217Z,14.06
2023-03-17T15:49:12.162Z,14.03
2023-03-17T15:52:16.776Z,14.05
2023-03-17T15:55:23.936Z,13.99
2023-03-17T15:58:25.341Z,13.96
2023-03-17T16:01:28.039Z,13.97
2023-03-17T16:04:29.554Z,13.93
2023-03-17T16:07:31.044Z,13.91
2023-03-17T16:10:33.479Z,13.88
2023-03-17T16:13:35.154Z,13.84
2023-03-17T16:16:39.466Z,13.79
2023-03-17T16:19:40.944Z,13.74
2023-03-17T16:22:43.469Z,13.71
2023-03-17T16:25:46.159Z,13.64
2023-03-17T16:28:47.893Z,13.60
2023-03-17T16:31:50.983Z,13.54
2023-03-17T16:34:52.341Z,13.31
2023-03-17T16:37:54.067Z,13.38
2023-03-17T16:40:59.543Z,13.36
2023-03-17T16:44:02.252Z,13.29
2023-03-17T16:47:03.903Z,13.18
2023-03-17T16:50:14.564Z,13.09
2023-03-17T16:53:16.103Z,13.05
2023-03-17T16:56:22.400Z,13.00
2023-03-17T16:59:23.841Z,12.92
2023-03-17T17:02:25.335Z,12.86
2023-03-17T17:05:29.339Z,12.85
2023-03-17T17:08:30.725Z,12.80
2023-03-17T17:11:32.168Z,12.75
2023-03-17T17:14:33.578Z,12.72
2023-03-17T17:17:37.176Z,12.67
2023-03-17T17:20:40.182Z,12.68
2023-03-17T17:23:41.717Z,12.39
2023-03-17T17:26:43.139Z,12.40
2023-03-17T17:29:44.560Z,12.34
2023-03-17T17:32:46.639Z,12.26
2023-03-17T17:35:49.193Z,12.21
2023-03-17T17:38:50.617Z,12.12
2023-03-17T17:41:52.018Z,12.08
2023-03-17T17:44:53.423Z,12.00
2023-03-17T17:47:54.858Z,11.92
2023-03-17T17:50:57.259Z,11.90
2023-03-17T17:53:58.792Z,11.83
2023-03-17T17:57:00.716Z,11.83
2023-03-17T18:00:02.618Z,11.78
2023-03-17T18:03:10.263Z,11.70
2023-03-17T18:06:12.268Z,11.65
2023-03-17T18:09:14.822Z,11.64
2023-03-17T18:12:16.254Z,11.64
2023-03-17T18:15:18.023Z,11.67
2023-03-17T18:18:19.515Z,11.61
2023-03-17T18:21:20.948Z,11.50
2023-03-17T18:24:22.372Z,11.50
2023-03-17T18:27:23.761Z,11.45
2023-03-17T18:30:28.109Z,11.45
2023-03-17T18:33:29.641Z,11.41
2023-03-17T18:36:31.050Z,11.36
2023-03-17T18:39:32.431Z,11.32
2023-03-17T18:42:33.891Z,11.31
2023-03-17T18:45:35.385Z,11.32
2023-03-17T18:48:37.186Z,11.28
2023-03-17T18:51:38.636Z,11.23
2023-03-17T18:54:40.073Z,11.20
2023-03-17T18:57:44.426Z,11.19
2023-03-17T19:00:46.438Z,11.19
2023-03-17T19:03:47.917Z,11.22
2023-03-17T19:06:49.277Z,11.24
2023-03-17T19:09:50.704Z,11.21
2023-03-17T19:12:52.133Z,11.21
2023-03-17T19:15:53.510Z,11.21
2023-03-17T19:18:56.000Z,11.19
2023-03-17T19:21:57.429Z,11.15
2023-03-17T19:24:58.815Z,11.14
2023-03-17T19:28:00.166Z,11.16
2023-03-17T19:31:01.756Z,11.10
2023-03-17T19:34:03.190Z,10.98
2023-03-17T19:37:04.602Z,10.94
2023-03-17T19:40:08.252Z,10.90
2023-03-17T19:43:09.639Z,10.81
2023-03-17T19:46:11.724Z,10.68
2023-03-17T19:49:13.638Z,10.61
2023-03-17T19:52:15.044Z,10.57
2023-03-17T19:55:16.439Z,10.54
2023-03-17T19:58:17.857Z,10.53
2023-03-17T20:01:19.323Z,10.53
2023-03-17T20:04:20.801Z,10.50
2023-03-17T20:07:22.407Z,10.41
2023-03-17T20:10:23.895Z,10.34
2023-03-17T20:13:25.303Z,10.34
2023-03-17T20:16:27.024Z,10.36
2023-03-17T20:19:28.425Z,10.36
2023-03-17T20:22:29.853Z,10.35
2023-03-17T20:25:31.254Z,10.34
2023-03-17T20:28:32.884Z,10.35
2023-03-17T20:31:35.762Z,10.34
2023-03-17T20:34:37.672Z,10.31
2023-03-17T20:37:39.270Z,10.29
2023-03-17T20:40:40.653Z,10.31
2023-03-17T20:43:42.334Z,10.34
2023-03-17T20:46:43.965Z,10.34
2023-03-17T20:49:45.530Z,10.34
2023-03-17T20:52:47.121Z,10.29
2023-03-17T20:55:48.547Z,10.26
2023-03-17T20:58:50.924Z,10.30
2023-03-17T21:01:52.364Z,10.30
2023-03-17T21:04:53.753Z,10.35
2023-03-17T21:07:55.171Z,10.39
2023-03-17T21:10:56.642Z,10.32
2023-03-17T21:13:58.131Z,10.14
2023-03-17T21:16:59.887Z,10.02
2023-03-17T21:20:01.333Z,9.99
2023-03-17T21:23:02.757Z,9.95
2023-03-17T21:26:04.644Z,9.96
2023-03-17T21:29:06.012Z,9.91
2023-03-17T21:32:07.501Z,9.94
2023-03-17T21:35:09.422Z,9.96
2023-03-17T21:38:10.915Z,9.96
2023-03-17T21:41:41.432Z,9.89
2023-03-17T21:44:42.820Z,9.88
2023-03-17T21:47:44.493Z,9.82
2023-03-17T21:50:47.279Z,9.82
2023-03-17T21:53:49.064Z,9.78
2023-03-17T21:56:50.450Z,9.85
2023-03-17T21:59:51.861Z,9.77
2023-03-17T22:02:53.245Z,9.74
2023-03-17T22:05:54.886Z,9.75
2023-03-17T22:08:56.367Z,9.75
2023-03-17T22:11:57.761Z,9.75
2023-03-17T22:14:59.173Z,9.72
2023-03-17T22:18:00.691Z,9.69
2023-03-17T22:21:02.760Z,9.64
2023-03-17T22:24:04.191Z,9.65
2023-03-17T22:27:05.689Z,9.64
2023-03-17T22:30:07.765Z,9.64
2023-03-17T22:33:09.798Z,9.62
2023-03-17T22:36:11.785Z,9.59
2023-03-17T22:39:13.224Z,9.58
2023-03-17T22:42:14.653Z,9.54
2023-03-17T22:45:16.267Z,9.54
2023-03-17T22:48:17.697Z,9.56
2023-03-17T22:51:22.346Z,9.58
2023-03-17T22:54:23.844Z,9.58
2023-03-17T22:57:25.280Z,9.56
2023-03-17T23:00:26.717Z,9.59
2023-03-17T23:03:28.617Z,9.57
2023-03-17T23:06:30.048Z,9.52
2023-03-17T23:09:31.807Z,9.49
2023-03-17T23:12:34.456Z,9.40
2023-03-17T23:15:35.924Z,9.27
2023-03-17T23:18:37.318Z,9.14
2023-03-17T23:21:39.306Z,9.08
2023-03-17T23:24:40.702Z,9.01
2023-03-17T23:27:42.239Z,8.97
2023-03-17T23:30:44.123Z,8.91
2023-03-17T23:33:47.135Z,8.88
2023-03-17T23:36:48.646Z,8.83
2023-03-17T23:39:50.103Z,8.82
2023-03-17T23:42:51.718Z,8.86
2023-03-17T23:45:53.483Z,8.85
2023-03-17T23:48:54.925Z,8.86
2023-03-17T23:51:56.427Z,8.88
2023-03-17T23:54:57.948Z,8.85
2023-03-17T23:57:59.407Z,8.81
